Terminal Aerodrome Forecast
Issued by NWS Chicago, IL

Home | Current Version | Previous Version | Graphics & Text | Print | Product List | Glossary On
Versions: 1 2 3 4 5 6 7 8 9 10 11 12 13 14 15 16 17 18 19 20 21 22 23 24 25 26 27
373
FTUS43 KLOT 250328 AAA
TAFRFD
TAF AMD
KRFD 250328Z 2503/2524 09007KT P6SM SKC
     FM250600 12005KT P6SM SCT060
     FM250900 14007KT 5SM BR VCSH BKN015
     FM251400 17009KT P6SM SCT020 BKN200
     FM252000 20010KT P6SM VCSH BKN050
      TEMPO 2521/2524 3SM TSRA SCT025 OVC035CB=

USA.gov is the U.S. government's official web portal to all federal, state and local government web resources and services.